Time;durP1;ratioP1;P1;durP2;ratioP2;P2;SDS_P1;SDS_P2;PMS_P1;PMS_P2;Temp;Humidity;BMP_temperature;BMP_pressure;BME280_temperature;BME280_humidity;BME280_pressure;Samples;Min_cycle;Max_cycle;Signal;HPM_P1;HPM_P2
2021/12/11 00:01:16;;;;;;;24.20;12.35;;;-1.40;99.90;;;;;;4976640;28;20478;-80
2021/12/11 00:04:01;;;;;;;23.92;11.93;;;-1.50;99.90;;;;;;5002860;28;20052;-80
2021/12/11 00:06:38;;;;;;;24.02;12.32;;;-1.50;99.90;;;;;;5012097;28;20089;-80
2021/12/11 00:09:29;;;;;;;23.70;11.43;;;-1.50;99.90;;;;;;5009984;28;20050;-80
2021/12/11 00:12:06;;;;;;;28.48;13.23;;;-1.50;99.90;;;;;;4991571;28;20057;-80
2021/12/11 00:14:36;;;;;;;22.58;11.90;;;-1.50;99.90;;;;;;4992702;28;20042;-79
2021/12/11 00:17:03;;;;;;;20.65;12.50;;;-1.50;99.90;;;;;;4992318;28;20415;-79
2021/12/11 00:19:35;;;;;;;21.63;12.05;;;-1.50;99.90;;;;;;4993052;28;20046;-79
2021/12/11 00:22:12;;;;;;;19.75;11.10;;;-1.50;99.90;;;;;;4993850;28;20050;-80
2021/12/11 00:24:40;;;;;;;23.58;12.23;;;-1.30;99.90;;;;;;4993382;28;20050;-79
2021/12/11 00:27:33;;;;;;;19.25;12.30;;;-1.50;99.90;;;;;;4993728;28;20409;-79
2021/12/11 00:30:00;;;;;;;23.85;13.27;;;-1.50;99.90;;;;;;4990991;28;20490;-79
2021/12/11 00:32:29;;;;;;;22.80;13.02;;;-1.50;99.90;;;;;;5005257;28;20141;-80
2021/12/11 00:35:02;;;;;;;29.02;14.77;;;-1.50;99.90;;;;;;5011758;28;20103;-80
2021/12/11 00:37:28;;;;;;;21.02;12.88;;;-1.50;99.90;;;;;;5010445;28;20128;-80
2021/12/11 00:40:01;;;;;;;28.15;15.02;;;-1.50;99.90;;;;;;4991985;28;20125;-79
2021/12/11 00:42:33;;;;;;;33.47;15.40;;;-1.40;99.90;;;;;;4995677;28;20069;-79
2021/12/11 00:45:08;;;;;;;27.27;14.00;;;-1.40;99.90;;;;;;4996853;28;20077;-79
2021/12/11 00:47:34;;;;;;;20.98;11.93;;;-1.50;99.90;;;;;;4995130;28;20061;-79
2021/12/11 00:50:09;;;;;;;25.05;12.65;;;-1.20;99.90;;;;;;4995530;28;20478;-79
2021/12/11 00:52:37;;;;;;;31.45;13.13;;;-1.40;99.90;;;;;;4996594;28;20062;-79
2021/12/11 00:55:26;;;;;;;25.13;13.98;;;-1.50;99.90;;;;;;5015495;28;20038;-79
2021/12/11 00:58:12;;;;;;;21.35;12.25;;;-1.50;99.90;;;;;;5015417;28;20072;-79
2021/12/11 01:00:50;;;;;;;20.58;12.05;;;-1.40;99.90;;;;;;5014222;28;20132;-79
2021/12/11 01:03:23;;;;;;;25.40;12.90;;;-0.80;99.90;;;;;;5014874;28;20049;-79
2021/12/11 01:05:53;;;;;;;21.35;13.48;;;-1.50;99.90;;;;;;5015057;28;20069;-79
2021/12/11 01:08:41;;;;;;;23.10;12.80;;;-1.50;99.90;;;;;;5005992;28;20516;-79
2021/12/11 01:11:12;;;;;;;22.30;12.05;;;-1.50;99.90;;;;;;4979047;28;20053;-79
2021/12/11 01:13:46;;;;;;;25.42;12.63;;;-1.50;99.90;;;;;;4994390;28;20065;-79
2021/12/11 01:16:15;;;;;;;20.05;12.52;;;-0.70;99.90;;;;;;4995500;28;20054;-79
2021/12/11 01:18:48;;;;;;;21.42;12.93;;;-0.60;99.90;;;;;;4996064;28;20050;-79
2021/12/11 01:26:34;;;;;;;23.27;12.55;;;-1.60;99.90;;;;;;5014902;28;20389;-79
2021/12/11 01:29:00;;;;;;;22.98;13.10;;;-0.80;99.90;;;;;;5013576;28;20061;-79
2021/12/11 01:31:27;;;;;;;21.88;11.57;;;-1.60;99.90;;;;;;5014842;28;20204;-79
2021/12/11 01:33:55;;;;;;;17.65;12.00;;;-1.60;99.90;;;;;;4998003;28;20485;-79
2021/12/11 01:36:22;;;;;;;29.58;13.13;;;-1.60;99.90;;;;;;5006666;28;20046;-79
2021/12/11 01:38:53;;;;;;;24.20;13.77;;;-1.60;99.90;;;;;;5006056;28;20046;-79
2021/12/11 01:41:21;;;;;;;25.92;13.75;;;-1.70;99.90;;;;;;5015526;28;20085;-79
2021/12/11 01:43:51;;;;;;;24.58;12.95;;;-1.70;99.90;;;;;;5014779;28;20176;-79
2021/12/11 01:46:20;;;;;;;26.13;14.02;;;-1.70;99.90;;;;;;5014007;28;20054;-79
2021/12/11 01:48:56;;;;;;;19.83;12.20;;;-1.50;99.90;;;;;;4997017;28;20053;-79
2021/12/11 01:51:34;;;;;;;26.50;14.75;;;-1.50;99.90;;;;;;5014011;28;20050;-79
2021/12/11 01:54:05;;;;;;;24.42;13.70;;;-1.80;99.90;;;;;;5000506;28;20057;-79
2021/12/11 01:56:33;;;;;;;33.72;15.15;;;-1.80;99.90;;;;;;4993678;28;20055;-79
2021/12/11 01:59:11;;;;;;;40.75;17.58;;;-1.80;99.90;;;;;;4978179;28;20042;-79
2021/12/11 02:01:46;;;;;;;35.85;17.38;;;-1.50;99.90;;;;;;4978264;28;20050;-79
2021/12/11 02:04:12;;;;;;;;;;;-1.30;99.90;;;;;;5010087;28;20493;-79
2021/12/11 02:06:40;;;;;;;24.45;13.10;;;-0.90;99.90;;;;;;4997848;28;20000;-79
2021/12/11 02:09:28;;;;;;;24.70;13.15;;;-1.80;99.90;;;;;;5000693;28;20046;-79
2021/12/11 02:12:13;;;;;;;27.05;14.45;;;-1.40;99.90;;;;;;4993640;28;20085;-79
2021/12/11 02:14:46;;;;;;;30.73;15.68;;;-1.80;99.90;;;;;;4994367;28;20050;-79
2021/12/11 02:17:29;;;;;;;30.50;15.45;;;-1.80;99.90;;;;;;4993151;28;20054;-79
2021/12/11 02:19:57;;;;;;;27.05;14.70;;;-1.80;99.90;;;;;;4997059;28;20054;-79
2021/12/11 02:22:27;;;;;;;25.90;14.90;;;-1.80;99.90;;;;;;5005594;28;20138;-79
2021/12/11 02:24:58;;;;;;;27.70;15.38;;;-1.80;99.90;;;;;;4993327;28;20108;-79
2021/12/11 02:27:35;;;;;;;28.92;14.82;;;-1.90;99.90;;;;;;4994022;28;20057;-79
2021/12/11 02:30:32;;;;;;;30.13;15.25;;;-1.80;99.90;;;;;;4993811;28;20057;-79
2021/12/11 02:33:17;;;;;;;25.17;14.40;;;-1.90;99.90;;;;;;4993062;28;20133;-79
2021/12/11 02:35:57;;;;;;;26.50;14.65;;;-1.90;99.90;;;;;;4993797;28;20387;-79
2021/12/11 02:38:36;;;;;;;27.70;14.90;;;-1.90;99.90;;;;;;5000227;28;20160;-79
2021/12/11 02:41:25;;;;;;;28.95;15.05;;;-1.90;99.90;;;;;;5012778;28;20121;-79
2021/12/11 02:44:10;;;;;;;25.90;13.63;;;-1.90;99.90;;;;;;5014537;28;20049;-79
2021/12/11 02:46:52;;;;;;;21.33;12.25;;;-1.90;99.90;;;;;;5013512;28;20437;-79
2021/12/11 02:49:43;;;;;;;28.02;14.35;;;-1.90;99.90;;;;;;5013294;28;20441;-79
2021/12/11 02:52:23;;;;;;;28.08;16.00;;;-2.00;99.90;;;;;;4985341;28;20503;-79
2021/12/11 02:55:00;;;;;;;28.90;14.15;;;-2.00;99.90;;;;;;4994735;28;20058;-79
2021/12/11 02:57:34;;;;;;;26.17;14.32;;;-2.00;99.90;;;;;;4993143;28;20134;-79
2021/12/11 03:00:14;;;;;;;29.05;14.57;;;-2.00;99.90;;;;;;4992458;28;20498;-79
2021/12/11 03:02:46;;;;;;;28.35;15.02;;;-2.00;99.90;;;;;;4995053;28;20054;-79
2021/12/11 03:05:16;;;;;;;35.58;17.27;;;-2.00;99.90;;;;;;5013017;28;20505;-79
2021/12/11 03:07:49;;;;;;;28.98;15.23;;;-2.00;99.90;;;;;;5012624;28;20042;-79
2021/12/11 03:10:17;;;;;;;28.50;14.23;;;-0.80;99.90;;;;;;4994536;28;20107;-79
2021/12/11 03:12:44;;;;;;;26.73;15.63;;;-1.50;99.90;;;;;;4993399;28;20054;-79
2021/12/11 03:15:12;;;;;;;29.83;15.85;;;-2.00;99.90;;;;;;4993550;28;20054;-79
2021/12/11 03:17:38;;;;;;;30.25;16.10;;;-2.00;99.90;;;;;;4992854;28;20508;-79
2021/12/11 03:20:07;;;;;;;31.42;15.38;;;-1.00;99.90;;;;;;4992148;28;20101;-79
2021/12/11 03:22:34;;;;;;;23.05;14.07;;;-2.00;99.90;;;;;;4992684;28;20057;-79
2021/12/11 03:25:06;;;;;;;28.48;14.95;;;-2.00;99.90;;;;;;5012209;28;20093;-79
2021/12/11 03:27:32;;;;;;;34.15;16.02;;;-2.00;99.90;;;;;;5012016;28;20046;-78
2021/12/11 03:29:59;;;;;;;34.78;15.90;;;-2.10;99.90;;;;;;4996035;28;20127;-78
2021/12/11 03:32:24;;;;;;;37.53;18.25;;;-2.10;99.90;;;;;;4996033;28;20057;-79
2021/12/11 03:34:51;;;;;;;45.65;20.75;;;-2.00;99.90;;;;;;5011593;28;20046;-79
2021/12/11 03:37:19;;;;;;;46.63;22.20;;;-2.00;99.90;;;;;;5012332;28;20049;-79
2021/12/11 03:39:48;;;;;;;40.60;19.67;;;-2.00;99.90;;;;;;4978953;28;20054;-79
2021/12/11 03:42:29;;;;;;;37.22;17.77;;;-1.90;99.90;;;;;;4992206;28;20112;-79
2021/12/11 03:44:55;;;;;;;49.13;19.77;;;-1.90;99.90;;;;;;4992523;28;20054;-79
2021/12/11 03:47:25;;;;;;;44.53;19.55;;;-1.30;99.90;;;;;;4992749;28;20120;-79
2021/12/11 03:49:51;;;;;;;46.85;20.02;;;-1.80;99.90;;;;;;4991938;28;20069;-79
2021/12/11 03:52:17;;;;;;;37.60;19.08;;;-1.90;99.90;;;;;;4992736;28;20101;-79
2021/12/11 03:54:46;;;;;;;34.08;17.40;;;-1.90;99.90;;;;;;4993167;28;20464;-79
2021/12/11 03:57:15;;;;;;;29.60;17.05;;;-1.90;99.90;;;;;;5011274;28;20058;-79
2021/12/11 03:59:47;;;;;;;27.98;16.00;;;-1.90;99.90;;;;;;5012371;28;20395;-79
2021/12/11 04:02:18;;;;;;;31.15;16.23;;;-1.90;99.90;;;;;;5011362;28;20064;-79
2021/12/11 04:04:52;;;;;;;34.50;16.05;;;-1.10;99.90;;;;;;4995929;28;20504;-79
2021/12/11 04:07:23;;;;;;;31.90;16.10;;;-2.00;99.90;;;;;;5012130;28;20057;-79
2021/12/11 04:09:49;;;;;;;27.77;15.40;;;-2.00;99.90;;;;;;4977438;28;20050;-78
2021/12/11 04:12:17;;;;;;;35.30;16.67;;;-2.00;99.90;;;;;;4976233;28;20058;-79
2021/12/11 04:14:45;;;;;;;29.25;15.18;;;-2.00;99.90;;;;;;4994440;28;20043;-78
2021/12/11 04:17:13;;;;;;;23.92;13.73;;;-2.00;99.90;;;;;;4995481;28;20088;-78
2021/12/11 04:19:40;;;;;;;29.08;15.43;;;-2.00;99.90;;;;;;4996491;28;20121;-78
2021/12/11 04:22:07;;;;;;;28.60;15.00;;;-1.50;99.90;;;;;;4996368;28;20050;-78
2021/12/11 04:24:36;;;;;;;33.55;17.25;;;-2.10;99.90;;;;;;5010365;28;20516;-79
2021/12/11 04:27:05;;;;;;;35.75;18.50;;;-2.10;99.90;;;;;;4999328;28;20053;-78
2021/12/11 04:29:30;;;;;;;40.08;18.45;;;-2.10;99.90;;;;;;5015883;28;20398;-78
2021/12/11 04:32:00;;;;;;;35.47;17.02;;;-2.10;99.90;;;;;;5015976;28;20038;-78
2021/12/11 04:34:26;;;;;;;59.05;23.95;;;-2.10;99.90;;;;;;5002830;28;20062;-78
2021/12/11 04:36:59;;;;;;;58.72;24.60;;;-2.00;99.90;;;;;;4995777;28;20056;-79
2021/12/11 04:39:28;;;;;;;56.53;24.85;;;-2.00;99.90;;;;;;4993348;28;20049;-79
2021/12/11 04:42:03;;;;;;;64.72;26.48;;;-1.90;99.90;;;;;;5015456;28;20133;-79
2021/12/11 04:44:34;;;;;;;;;;;-1.80;99.90;;;;;;4998779;28;20129;-79
2021/12/11 04:47:03;;;;;;;67.75;25.30;;;-1.80;99.90;;;;;;5016312;28;19922;-79
2021/12/11 04:49:37;;;;;;;50.90;24.05;;;-1.30;99.90;;;;;;5016654;28;20465;-79
2021/12/11 04:52:18;;;;;;;53.28;21.52;;;-1.70;99.90;;;;;;5015577;28;20057;-79
2021/12/11 05:00:20;;;;;;;70.60;25.67;;;-1.60;99.90;;;;;;4994942;28;20481;-79
2021/12/11 05:06:04;;;;;;;58.58;21.65;;;-1.40;99.90;;;;;;5015063;28;20050;-79
2021/12/11 05:10:56;;;;;;;38.63;19.65;;;-1.00;99.90;;;;;;4995281;28;20057;-79
2021/12/11 05:13:24;;;;;;;34.13;18.80;;;-1.70;99.90;;;;;;4994685;28;20112;-79
2021/12/11 05:15:55;;;;;;;34.70;18.42;;;-1.80;99.90;;;;;;4996466;28;20070;-79
2021/12/11 05:18:24;;;;;;;39.20;18.50;;;-1.80;99.90;;;;;;4979080;28;20494;-79
2021/12/11 05:20:54;;;;;;;39.13;19.90;;;-1.80;99.90;;;;;;4994317;28;20051;-79
2021/12/11 05:23:20;;;;;;;30.60;17.42;;;-1.90;99.90;;;;;;4996230;28;20050;-79
2021/12/11 05:25:46;;;;;;;36.83;18.65;;;-1.90;99.90;;;;;;4994167;28;20421;-78
2021/12/11 05:28:13;;;;;;;39.70;17.95;;;-1.30;99.90;;;;;;4993993;28;20046;-78
2021/12/11 05:30:47;;;;;;;39.97;18.90;;;-2.00;99.90;;;;;;4994925;28;20050;-78
2021/12/11 05:33:14;;;;;;;40.80;18.17;;;-2.00;99.90;;;;;;4994873;28;20042;-78
2021/12/11 05:35:42;;;;;;;35.67;17.88;;;-2.00;99.90;;;;;;4994265;28;20046;-78
2021/12/11 05:38:10;;;;;;;36.88;17.35;;;-2.10;99.90;;;;;;4995803;28;20046;-78
2021/12/11 05:40:42;;;;;;;28.50;16.33;;;-1.70;99.90;;;;;;4995447;28;20046;-78
2021/12/11 05:43:09;;;;;;;35.17;17.70;;;-2.10;99.90;;;;;;5014355;28;20050;-78
2021/12/11 05:45:35;;;;;;;33.70;17.42;;;-2.10;99.90;;;;;;5013965;28;20556;-78
2021/12/11 05:48:01;;;;;;;41.53;18.35;;;-2.10;99.90;;;;;;5013527;28;20497;-78
2021/12/11 05:50:34;;;;;;;42.17;20.33;;;-2.10;99.90;;;;;;5014423;28;20121;-78
2021/12/11 05:53:02;;;;;;;37.13;20.08;;;-2.10;99.90;;;;;;5011417;28;20058;-78
2021/12/11 05:55:30;;;;;;;38.08;17.27;;;-2.10;99.90;;;;;;4993624;28;20046;-78
2021/12/11 05:57:58;;;;;;;33.72;18.08;;;-2.20;99.90;;;;;;4994316;28;20077;-78
2021/12/11 06:00:32;;;;;;;38.05;19.60;;;-1.20;99.90;;;;;;4994585;28;20054;-78
2021/12/11 06:02:59;;;;;;;36.47;18.15;;;-1.80;99.90;;;;;;4998969;28;20053;-78
2021/12/11 06:05:25;;;;;;;35.75;17.75;;;-2.20;99.90;;;;;;5014174;28;20057;-78
2021/12/11 06:07:52;;;;;;;28.73;17.90;;;-1.70;99.90;;;;;;5012186;28;20050;-78
2021/12/11 06:10:21;;;;;;;31.75;17.70;;;-2.20;99.90;;;;;;4994687;28;20054;-78
2021/12/11 06:12:53;;;;;;;28.70;15.93;;;-2.20;99.90;;;;;;4994184;28;20042;-78
2021/12/11 06:15:19;;;;;;;30.20;15.98;;;-2.20;99.90;;;;;;4994160;28;20516;-78
2021/12/11 06:17:46;;;;;;;33.25;16.90;;;-2.20;99.90;;;;;;4993153;28;20521;-78
2021/12/11 06:20:18;;;;;;;34.08;18.25;;;-2.20;99.90;;;;;;4994301;28;20053;-78
2021/12/11 06:22:45;;;;;;;40.17;18.35;;;-2.20;99.90;;;;;;4994544;28;20092;-78
2021/12/11 06:25:20;;;;;;;29.08;16.70;;;-2.30;99.90;;;;;;5013739;28;20100;-78
2021/12/11 06:27:47;;;;;;;29.95;16.23;;;-2.20;99.90;;;;;;5013683;28;20046;-78
2021/12/11 06:30:14;;;;;;;35.50;17.67;;;-2.30;99.90;;;;;;5012825;28;20052;-78
2021/12/11 06:32:41;;;;;;;34.05;17.55;;;-2.30;99.90;;;;;;5013505;28;20137;-78
2021/12/11 06:35:33;;;;;;;33.95;17.85;;;-2.30;99.90;;;;;;5013584;28;20052;-78
2021/12/11 06:38:00;;;;;;;39.85;20.67;;;-2.30;99.90;;;;;;5009408;28;20057;-78
2021/12/11 06:40:28;;;;;;;38.97;18.80;;;-2.30;99.90;;;;;;4999988;28;20053;-78
2021/12/11 06:42:55;;;;;;;32.83;17.83;;;-2.30;99.90;;;;;;4997109;28;20041;-78
2021/12/11 06:45:22;;;;;;;37.30;19.10;;;-2.30;99.90;;;;;;5012102;28;20062;-78
2021/12/11 06:47:48;;;;;;;41.10;19.60;;;-2.20;99.90;;;;;;5013163;28;20448;-78
2021/12/11 06:50:18;;;;;;;37.67;18.27;;;-2.40;99.90;;;;;;4997051;28;20049;-78
2021/12/11 06:52:44;;;;;;;35.65;17.45;;;-1.50;99.90;;;;;;4994992;28;20060;-78
2021/12/11 06:55:10;;;;;;;31.23;16.77;;;-2.40;99.90;;;;;;4977145;28;20045;-78
2021/12/11 06:57:36;;;;;;;33.42;17.77;;;-2.40;99.90;;;;;;4977100;28;20050;-78
2021/12/11 07:00:05;;;;;;;35.63;19.02;;;-2.40;99.90;;;;;;4992378;28;20130;-78
2021/12/11 07:02:31;;;;;;;30.50;17.15;;;-2.50;99.90;;;;;;4994564;28;20056;-78
2021/12/11 07:04:57;;;;;;;30.27;17.77;;;-2.50;99.90;;;;;;4996790;28;20392;-78
2021/12/11 07:07:27;;;;;;;33.38;18.13;;;-2.50;99.90;;;;;;5012270;28;20389;-78
2021/12/11 07:09:55;;;;;;;27.00;15.98;;;-1.70;99.90;;;;;;4996010;28;20105;-78
2021/12/11 07:12:21;;;;;;;31.73;19.02;;;-2.50;99.90;;;;;;4993878;28;20042;-77
2021/12/11 07:14:48;;;;;;;29.55;17.30;;;-2.50;99.90;;;;;;4994392;28;20046;-77
2021/12/11 07:17:15;;;;;;;28.73;16.45;;;-2.50;99.90;;;;;;4994367;28;20082;-77
2021/12/11 07:19:40;;;;;;;24.65;14.98;;;-2.50;99.90;;;;;;4992119;28;20046;-77
2021/12/11 07:22:06;;;;;;;34.22;17.10;;;-2.50;99.90;;;;;;4992904;28;20100;-77
2021/12/11 07:24:37;;;;;;;28.23;16.55;;;-2.50;99.90;;;;;;5007922;28;20048;-78
2021/12/11 07:27:07;;;;;;;27.95;17.20;;;-2.50;99.90;;;;;;4992415;28;20054;-78
2021/12/11 07:29:33;;;;;;;36.67;19.85;;;-2.50;99.90;;;;;;4992970;28;20065;-78
2021/12/11 07:32:00;;;;;;;34.42;19.17;;;-2.50;99.90;;;;;;4992822;28;20061;-78
2021/12/11 07:34:26;;;;;;;37.40;19.85;;;-2.20;99.90;;;;;;4992698;28;20161;-78
2021/12/11 07:36:52;;;;;;;40.17;19.38;;;-2.00;99.90;;;;;;4992597;28;20046;-78
2021/12/11 07:39:20;;;;;;;32.40;18.60;;;-2.40;99.90;;;;;;5005711;28;20038;-78
2021/12/11 07:41:46;;;;;;;30.70;15.90;;;-2.50;99.90;;;;;;5011726;28;20133;-78
2021/12/11 07:44:13;;;;;;;31.60;17.75;;;-2.50;99.90;;;;;;5012519;28;20044;-78
2021/12/11 07:46:39;;;;;;;28.42;17.52;;;-2.50;99.90;;;;;;5012105;28;20163;-77
2021/12/11 07:49:06;;;;;;;33.38;18.02;;;-2.40;99.90;;;;;;5013539;28;20408;-77
2021/12/11 07:51:33;;;;;;;28.90;15.82;;;-2.40;99.90;;;;;;5016660;28;20046;-77
2021/12/11 07:54:00;;;;;;;35.40;17.80;;;-2.50;99.90;;;;;;5005361;28;20046;-76
2021/12/11 07:56:26;;;;;;;29.50;17.25;;;-2.50;99.90;;;;;;4995579;28;20054;-76
2021/12/11 07:58:54;;;;;;;29.88;17.05;;;-2.40;99.90;;;;;;4980603;28;20046;-76
2021/12/11 08:01:21;;;;;;;31.65;17.05;;;-2.50;99.90;;;;;;4979905;28;20112;-77
2021/12/11 08:03:46;;;;;;;23.02;15.27;;;-2.40;99.90;;;;;;5008368;28;20120;-78
2021/12/11 08:06:13;;;;;;;31.25;17.50;;;-2.40;99.90;;;;;;4999735;28;20569;-77
2021/12/11 08:08:40;;;;;;;35.35;18.83;;;-2.40;99.90;;;;;;5011000;28;20065;-78
2021/12/11 08:11:13;;;;;;;41.78;22.90;;;-2.40;99.90;;;;;;5009413;28;20050;-78
2021/12/11 08:13:43;;;;;;;43.92;21.10;;;-2.40;99.90;;;;;;5017548;28;20108;-78
2021/12/11 08:16:12;;;;;;;34.00;17.13;;;-1.80;99.90;;;;;;5015437;28;20568;-78
2021/12/11 08:18:38;;;;;;;35.30;20.05;;;-2.40;99.90;;;;;;5016990;28;20053;-78
2021/12/11 08:21:05;;;;;;;57.10;32.47;;;-2.40;99.90;;;;;;5015822;28;20092;-78
2021/12/11 08:23:31;;;;;;;47.42;26.58;;;-2.40;99.90;;;;;;5014926;28;20494;-78
2021/12/11 08:25:59;;;;;;;65.28;36.55;;;-2.40;99.90;;;;;;5015317;28;20052;-78
2021/12/11 08:28:29;;;;;;;48.10;25.33;;;-2.40;99.90;;;;;;5016604;28;20583;-78
2021/12/11 08:30:56;;;;;;;63.17;33.55;;;-2.40;99.90;;;;;;5016049;28;20056;-78
2021/12/11 08:33:23;;;;;;;51.78;28.00;;;-2.40;99.90;;;;;;5015720;28;20054;-78
2021/12/11 08:35:49;;;;;;;46.05;26.65;;;-2.40;99.90;;;;;;5015631;28;20042;-78
2021/12/11 08:38:17;;;;;;;47.28;24.17;;;-2.30;99.90;;;;;;5014602;28;20049;-78
2021/12/11 08:40:47;;;;;;;46.15;23.48;;;-2.30;99.90;;;;;;5015422;28;20041;-78
2021/12/11 08:43:15;;;;;;;41.20;21.95;;;-1.90;99.90;;;;;;5015589;28;20409;-78
2021/12/11 08:45:48;;;;;;;43.35;20.75;;;-2.20;99.90;;;;;;5015529;28;20096;-78
2021/12/11 08:48:18;;;;;;;35.60;19.60;;;-2.20;99.90;;;;;;5015735;28;20049;-78
2021/12/11 08:50:48;;;;;;;46.88;21.63;;;-2.20;99.90;;;;;;5015786;28;20050;-78
2021/12/11 08:53:14;;;;;;;53.85;25.10;;;-1.80;99.90;;;;;;5015199;28;20056;-78
2021/12/11 08:55:43;;;;;;;51.10;24.23;;;-2.00;99.90;;;;;;5015142;28;20053;-79
2021/12/11 08:58:12;;;;;;;66.07;27.63;;;-1.60;99.90;;;;;;5014220;28;20120;-79
2021/12/11 09:00:55;;;;;;;70.25;29.17;;;-1.90;99.90;;;;;;5013822;28;20049;-79
2021/12/11 09:03:33;;;;;;;62.80;29.30;;;-1.70;99.90;;;;;;5016458;28;20038;-79
2021/12/11 09:06:10;;;;;;;63.63;29.40;;;-1.60;99.90;;;;;;5015386;28;20497;-79
2021/12/11 09:08:57;;;;;;;61.40;27.67;;;-1.50;99.90;;;;;;5015035;28;20050;-79
2021/12/11 09:11:32;;;;;;;65.60;29.52;;;-1.30;99.90;;;;;;5016280;28;20050;-79
2021/12/11 09:14:07;;;;;;;66.88;28.95;;;-0.80;99.90;;;;;;5015484;28;20038;-80
2021/12/11 09:16:39;;;;;;;73.22;30.27;;;-1.10;99.90;;;;;;5014755;28;20517;-80
2021/12/11 09:19:35;;;;;;;90.15;33.80;;;-1.10;99.90;;;;;;5014010;28;20050;-80
2021/12/11 09:22:32;;;;;;;84.53;31.48;;;-1.00;99.90;;;;;;5013200;28;20061;-80
2021/12/11 09:25:16;;;;;;;121.75;34.13;;;-0.90;99.90;;;;;;4987985;28;20045;-80
2021/12/11 09:27:56;;;;;;;102.00;34.40;;;-0.40;99.90;;;;;;5014031;28;20085;-80
2021/12/11 09:30:41;;;;;;;128.25;35.42;;;-0.60;99.90;;;;;;5014470;28;20052;-80
2021/12/11 09:33:17;;;;;;;119.95;35.80;;;-0.70;99.90;;;;;;5013666;28;20519;-80
2021/12/11 09:35:55;;;;;;;88.38;33.75;;;-0.60;99.90;;;;;;5014262;28;20493;-81
2021/12/11 09:38:31;;;;;;;69.55;30.73;;;-0.60;99.90;;;;;;5014791;28;20038;-81
2021/12/11 09:40:57;;;;;;;76.47;30.73;;;-0.50;99.90;;;;;;5013832;28;20061;-81
2021/12/11 09:43:30;;;;;;;79.95;33.22;;;-0.40;99.90;;;;;;4998000;28;20042;-81
2021/12/11 09:45:56;;;;;;;83.85;31.13;;;0.40;99.90;;;;;;5014118;28;20405;-81
2021/12/11 09:48:22;;;;;;;74.70;30.88;;;-0.30;99.90;;;;;;5013326;28;20049;-81
2021/12/11 09:51:00;;;;;;;87.85;33.10;;;-0.20;99.90;;;;;;5014126;28;20050;-81
2021/12/11 09:53:31;;;;;;;93.30;34.50;;;-0.10;99.90;;;;;;5014063;28;20046;-81
2021/12/11 09:55:57;;;;;;;89.50;31.08;;;-0.20;99.90;;;;;;5013170;28;20132;-81
2021/12/11 09:58:28;;;;;;;95.32;32.08;;;0.00;99.90;;;;;;5014290;28;20057;-81
2021/12/11 10:01:12;;;;;;;78.38;30.33;;;-0.10;99.90;;;;;;5013241;28;20042;-81
2021/12/11 10:03:48;;;;;;;82.53;32.28;;;0.00;99.90;;;;;;5014345;28;20141;-81
2021/12/11 10:06:38;;;;;;;150.40;37.25;;;0.10;99.90;;;;;;5014185;28;20401;-81
2021/12/11 10:09:19;;;;;;;159.05;35.75;;;0.10;99.90;;;;;;4996939;28;20104;-82
2021/12/11 10:12:10;;;;;;;140.55;32.28;;;0.20;99.90;;;;;;5013529;28;20045;-82
2021/12/11 10:14:44;;;;;;;150.07;32.00;;;0.20;99.90;;;;;;5000015;28;20062;-82
2021/12/11 10:17:30;;;;;;;204.93;35.03;;;0.30;99.90;;;;;;5012897;28;20061;-82
2021/12/11 10:19:59;;;;;;;202.27;37.22;;;0.50;99.90;;;;;;5014007;28;20469;-82
2021/12/11 10:22:30;;;;;;;109.43;28.10;;;0.30;99.90;;;;;;5013091;28;20096;-82
2021/12/11 10:24:56;;;;;;;179.85;35.83;;;0.90;99.90;;;;;;5013724;28;20069;-82
2021/12/11 10:27:25;;;;;;;150.00;32.95;;;1.20;99.90;;;;;;5014696;28;20042;-82
2021/12/11 10:29:52;;;;;;;155.70;31.85;;;0.60;99.90;;;;;;5013953;28;20042;-82
2021/12/11 10:32:25;;;;;;;141.60;32.15;;;0.50;99.90;;;;;;5014486;28;20125;-82
2021/12/11 10:34:54;;;;;;;89.82;27.55;;;0.50;99.90;;;;;;5014743;28;20100;-82
2021/12/11 10:37:29;;;;;;;84.65;27.88;;;0.50;99.90;;;;;;5013880;28;20072;-82
2021/12/11 10:39:58;;;;;;;99.63;28.42;;;0.60;99.90;;;;;;5013566;28;20437;-82
2021/12/11 10:42:24;;;;;;;161.25;30.63;;;0.80;99.90;;;;;;5013573;28;20053;-82
2021/12/11 10:44:53;;;;;;;97.50;27.88;;;0.70;99.90;;;;;;5013403;28;20042;-82
2021/12/11 10:47:23;;;;;;;140.30;30.02;;;0.70;99.90;;;;;;5013271;28;20061;-82
2021/12/11 10:49:50;;;;;;;59.47;25.17;;;0.90;99.90;;;;;;5014500;28;20046;-82
2021/12/11 10:52:26;;;;;;;112.13;25.40;;;0.70;99.90;;;;;;5013526;28;20046;-82
2021/12/11 10:54:54;;;;;;;202.75;30.95;;;0.70;99.90;;;;;;5013377;28;20042;-81
2021/12/11 10:57:21;;;;;;;164.77;27.60;;;0.80;99.90;;;;;;5012159;28;20107;-81
2021/12/11 10:59:50;;;;;;;112.97;26.52;;;0.70;99.90;;;;;;5013132;28;20046;-81
2021/12/11 11:02:24;;;;;;;165.73;29.27;;;0.80;99.90;;;;;;5012780;28;20053;-81
2021/12/11 11:05:06;;;;;;;122.07;26.98;;;0.80;99.90;;;;;;5013253;28;20046;-81
2021/12/11 11:07:32;;;;;;;131.75;26.23;;;0.80;99.90;;;;;;5012945;28;20045;-81
2021/12/11 11:10:00;;;;;;;113.40;26.17;;;1.20;99.90;;;;;;5012849;28;20050;-81
2021/12/11 11:12:28;;;;;;;130.23;29.40;;;0.90;99.90;;;;;;5011781;28;20046;-81
2021/12/11 11:14:55;;;;;;;172.45;29.40;;;0.90;99.90;;;;;;4996327;28;20041;-81
2021/12/11 11:17:28;;;;;;;116.18;27.55;;;1.20;99.90;;;;;;5012752;28;20050;-80
2021/12/11 11:19:55;;;;;;;150.88;29.55;;;1.00;99.90;;;;;;5012163;28;20096;-80
2021/12/11 11:22:25;;;;;;;130.52;28.15;;;1.70;99.90;;;;;;5012974;28;20056;-80
2021/12/11 11:24:56;;;;;;;132.15;26.38;;;1.00;99.90;;;;;;4995981;28;20045;-80
2021/12/11 11:27:22;;;;;;;63.75;23.33;;;1.10;99.90;;;;;;5011781;28;20473;-80
2021/12/11 11:29:48;;;;;;;100.47;25.55;;;1.10;99.90;;;;;;5012436;28;20050;-80
2021/12/11 11:32:18;;;;;;;111.57;27.95;;;1.20;99.90;;;;;;5012532;28;20108;-80
2021/12/11 11:34:45;;;;;;;61.10;24.25;;;1.40;99.90;;;;;;4996218;28;20489;-79
2021/12/11 11:37:18;;;;;;;69.90;24.60;;;1.30;99.90;;;;;;5013773;28;20424;-79
2021/12/11 11:39:46;;;;;;;72.97;24.70;;;1.40;99.90;;;;;;5011614;28;20049;-79
2021/12/11 11:42:17;;;;;;;61.33;25.02;;;1.30;99.90;;;;;;5013754;28;20050;-79
2021/12/11 11:44:45;;;;;;;59.50;23.85;;;1.30;99.90;;;;;;5013598;28;20053;-80
2021/12/11 11:47:13;;;;;;;52.03;25.23;;;1.30;99.90;;;;;;4995158;28;20052;-79
2021/12/11 11:49:39;;;;;;;64.90;25.00;;;1.40;99.90;;;;;;5012362;28;20099;-79
2021/12/11 11:52:12;;;;;;;51.90;23.95;;;1.40;99.90;;;;;;5012479;28;20117;-79
2021/12/11 11:54:42;;;;;;;59.85;25.13;;;1.50;99.90;;;;;;5011540;28;20061;-79
2021/12/11 11:57:20;;;;;;;57.78;25.15;;;2.00;99.90;;;;;;5012312;28;20064;-79
2021/12/11 11:59:48;;;;;;;87.45;25.92;;;1.60;99.90;;;;;;4996371;28;20389;-79
2021/12/11 12:02:18;;;;;;;62.00;25.45;;;2.10;99.90;;;;;;5011685;28;20050;-79
2021/12/11 12:04:48;;;;;;;57.35;23.65;;;1.50;99.90;;;;;;5012187;28;20050;-79
2021/12/11 12:07:14;;;;;;;73.38;26.00;;;1.60;99.90;;;;;;5012486;28;20450;-79
2021/12/11 12:09:44;;;;;;;54.10;26.17;;;1.80;99.90;;;;;;5011646;28;20398;-79
2021/12/11 12:12:12;;;;;;;56.92;24.83;;;1.60;99.90;;;;;;5012497;28;20058;-79
2021/12/11 12:14:40;;;;;;;64.03;27.83;;;1.70;99.90;;;;;;5011419;28;20049;-80
2021/12/11 12:17:11;;;;;;;70.13;28.73;;;1.90;99.90;;;;;;5013354;28;20054;-79
2021/12/11 12:19:37;;;;;;;62.45;26.95;;;1.80;99.90;;;;;;5013514;28;20034;-80
2021/12/11 12:22:06;;;;;;;63.17;28.13;;;1.80;99.90;;;;;;5011463;28;20057;-80
2021/12/11 12:24:35;;;;;;;67.15;26.83;;;1.90;99.90;;;;;;5012118;28;20045;-79
2021/12/11 12:27:05;;;;;;;77.57;28.08;;;1.90;99.90;;;;;;5012336;28;20128;-79
2021/12/11 12:29:31;;;;;;;65.93;27.23;;;2.00;99.90;;;;;;5011214;28;20046;-79
2021/12/11 12:32:03;;;;;;;57.00;27.23;;;2.00;99.90;;;;;;5011950;28;20132;-80
2021/12/11 12:34:29;;;;;;;54.15;25.90;;;2.10;99.90;;;;;;5011807;28;20489;-80
2021/12/11 12:36:57;;;;;;;52.50;24.38;;;2.10;99.90;;;;;;4998445;28;20060;-80
2021/12/11 12:39:26;;;;;;;52.25;25.65;;;2.10;99.90;;;;;;5016851;28;20077;-80
2021/12/11 12:42:04;;;;;;;64.80;27.85;;;2.20;99.90;;;;;;5015720;28;20556;-80
2021/12/11 12:44:32;;;;;;;52.33;25.23;;;2.20;99.90;;;;;;5016051;28;20042;-80
2021/12/11 12:47:08;;;;;;;62.58;25.77;;;2.20;99.90;;;;;;5015238;28;20058;-80
2021/12/11 12:49:36;;;;;;;46.85;23.35;;;2.30;99.90;;;;;;4999137;28;20104;-80
2021/12/11 12:52:08;;;;;;;55.53;25.92;;;2.30;99.90;;;;;;5015881;28;20045;-80
2021/12/11 12:54:34;;;;;;;59.95;25.52;;;2.40;99.90;;;;;;5015241;28;20486;-80
2021/12/11 12:57:11;;;;;;;65.55;26.67;;;2.40;99.90;;;;;;5014199;28;20064;-80
2021/12/11 12:59:40;;;;;;;57.28;26.38;;;2.40;99.90;;;;;;5015435;28;20061;-80
2021/12/11 13:02:11;;;;;;;54.38;25.65;;;2.50;99.90;;;;;;5015178;28;20509;-80
2021/12/11 13:04:43;;;;;;;46.92;23.30;;;2.40;99.90;;;;;;5014485;28;20053;-80